createdAt,value
2023-01-20T03:09:31.079Z,89.70
2023-01-20T03:14:34.822Z,101.82
2023-01-20T03:19:38.442Z,97.35
2023-01-20T03:24:45.160Z,105.50
2023-01-20T03:29:48.743Z,91.55
2023-01-20T03:34:52.357Z,95.43
2023-01-20T03:39:58.083Z,90.38
2023-01-20T03:45:07.637Z,80.63
2023-01-20T03:50:22.892Z,102.68
2023-01-20T03:55:34.322Z,108.95
2023-01-20T04:00:43.147Z,90.20
2023-01-20T04:05:49.061Z,99.05
2023-01-20T04:16:42.265Z,92.13
2023-01-20T04:21:50.107Z,80.30
2023-01-20T04:26:53.643Z,72.28
2023-01-20T04:32:02.077Z,84.55
2023-01-20T04:37:05.830Z,66.50
2023-01-20T04:42:11.031Z,64.00
2023-01-20T04:47:15.988Z,62.25
2023-01-20T04:52:19.522Z,62.85
2023-01-20T04:57:23.154Z,65.40
2023-01-20T05:02:28.187Z,83.38
2023-01-20T05:07:31.826Z,99.50
2023-01-20T05:12:36.565Z,75.95
2023-01-20T05:17:41.504Z,68.88
2023-01-20T05:22:45.244Z,61.22
2023-01-20T05:27:48.837Z,68.32
2023-01-20T05:32:53.770Z,75.15
2023-01-20T05:37:57.666Z,63.35
2023-01-20T05:43:01.428Z,72.68
2023-01-20T05:48:06.952Z,67.75
2023-01-20T05:53:10.551Z,65.03
2023-01-20T05:58:14.464Z,72.65
2023-01-20T06:03:19.399Z,76.10
2023-01-20T06:08:22.963Z,77.65
2023-01-20T06:13:26.672Z,80.53
2023-01-20T06:18:31.740Z,77.35
2023-01-20T06:23:35.423Z,83.13
2023-01-20T06:28:39.307Z,83.13
2023-01-20T06:33:44.608Z,81.50
2023-01-20T06:38:50.714Z,77.95
2023-01-20T06:43:54.464Z,81.50
2023-01-20T06:49:00.780Z,86.22
2023-01-20T06:54:04.608Z,86.63
2023-01-20T06:59:08.272Z,99.00
2023-01-20T07:04:14.800Z,135.80
2023-01-20T07:09:18.373Z,145.30
2023-01-20T07:14:22.586Z,213.07
2023-01-20T07:19:27.657Z,179.32
2023-01-20T07:24:31.211Z,281.48
2023-01-20T07:29:34.761Z,162.30
2023-01-20T07:34:39.688Z,191.35
2023-01-20T07:39:43.324Z,152.68
2023-01-20T07:44:46.955Z,128.13
2023-01-20T07:49:51.873Z,108.18
2023-01-20T07:54:55.440Z,109.82
2023-01-20T07:59:58.986Z,125.65
2023-01-20T08:05:03.987Z,98.28
2023-01-20T08:10:08.726Z,113.22
2023-01-20T08:15:13.165Z,109.47
2023-01-20T08:20:19.720Z,96.88
2023-01-20T08:25:23.521Z,93.50
